sensor_id;sensor_type;location;lat;lon;timestamp;P1;durP1;ratioP1;P2;durP2;ratioP2
65459;SDS011;52058;49.822;6.754;2022-07-24T00:01:49;6.38;;;5.78;;
65459;SDS011;52058;49.822;6.754;2022-07-24T00:04:14;6.47;;;5.88;;
65459;SDS011;52058;49.822;6.754;2022-07-24T00:06:40;7.00;;;6.10;;
65459;SDS011;52058;49.822;6.754;2022-07-24T00:09:05;8.85;;;5.70;;
65459;SDS011;52058;49.822;6.754;2022-07-24T00:11:31;6.28;;;5.68;;
65459;SDS011;52058;49.822;6.754;2022-07-24T00:13:57;6.05;;;5.45;;
65459;SDS011;52058;49.822;6.754;2022-07-24T00:16:23;8.30;;;5.28;;
65459;SDS011;52058;49.822;6.754;2022-07-24T00:18:48;7.15;;;5.72;;
65459;SDS011;52058;49.822;6.754;2022-07-24T00:21:14;6.63;;;5.93;;
65459;SDS011;52058;49.822;6.754;2022-07-24T00:23:39;7.45;;;6.05;;
65459;SDS011;52058;49.822;6.754;2022-07-24T00:26:05;7.18;;;5.57;;
65459;SDS011;52058;49.822;6.754;2022-07-24T00:28:30;8.13;;;6.15;;
65459;SDS011;52058;49.822;6.754;2022-07-24T00:30:56;7.53;;;6.10;;
65459;SDS011;52058;49.822;6.754;2022-07-24T00:33:21;6.97;;;6.07;;
65459;SDS011;52058;49.822;6.754;2022-07-24T00:35:47;6.88;;;5.75;;
65459;SDS011;52058;49.822;6.754;2022-07-24T00:38:12;6.72;;;5.85;;
65459;SDS011;52058;49.822;6.754;2022-07-24T00:40:37;6.43;;;5.80;;
65459;SDS011;52058;49.822;6.754;2022-07-24T00:43:03;7.82;;;5.80;;
65459;SDS011;52058;49.822;6.754;2022-07-24T00:45:29;7.60;;;6.00;;
65459;SDS011;52058;49.822;6.754;2022-07-24T00:47:55;7.32;;;5.90;;
65459;SDS011;52058;49.822;6.754;2022-07-24T00:50:21;7.05;;;6.00;;
65459;SDS011;52058;49.822;6.754;2022-07-24T00:52:46;7.55;;;6.10;;
65459;SDS011;52058;49.822;6.754;2022-07-24T00:55:12;7.47;;;5.75;;
65459;SDS011;52058;49.822;6.754;2022-07-24T00:57:37;7.50;;;5.78;;
65459;SDS011;52058;49.822;6.754;2022-07-24T01:00:04;9.90;;;5.95;;
65459;SDS011;52058;49.822;6.754;2022-07-24T01:02:31;6.93;;;6.22;;
65459;SDS011;52058;49.822;6.754;2022-07-24T01:04:57;7.03;;;6.18;;
65459;SDS011;52058;49.822;6.754;2022-07-24T01:07:23;7.07;;;6.32;;
65459;SDS011;52058;49.822;6.754;2022-07-24T01:09:48;8.80;;;6.25;;
65459;SDS011;52058;49.822;6.754;2022-07-24T01:12:14;8.27;;;6.15;;
65459;SDS011;52058;49.822;6.754;2022-07-24T01:14:39;7.45;;;6.40;;
65459;SDS011;52058;49.822;6.754;2022-07-24T01:17:04;7.88;;;6.13;;
65459;SDS011;52058;49.822;6.754;2022-07-24T01:19:30;7.13;;;6.20;;
65459;SDS011;52058;49.822;6.754;2022-07-24T01:21:55;6.75;;;6.05;;
65459;SDS011;52058;49.822;6.754;2022-07-24T01:24:21;9.27;;;6.13;;
65459;SDS011;52058;49.822;6.754;2022-07-24T01:26:47;6.82;;;6.00;;
65459;SDS011;52058;49.822;6.754;2022-07-24T01:29:13;7.53;;;6.43;;
65459;SDS011;52058;49.822;6.754;2022-07-24T01:31:39;7.93;;;6.25;;
65459;SDS011;52058;49.822;6.754;2022-07-24T01:34:05;7.05;;;6.35;;
65459;SDS011;52058;49.822;6.754;2022-07-24T01:36:31;8.38;;;6.60;;
65459;SDS011;52058;49.822;6.754;2022-07-24T01:38:56;7.47;;;6.68;;
65459;SDS011;52058;49.822;6.754;2022-07-24T01:41:22;9.43;;;6.68;;
65459;SDS011;52058;49.822;6.754;2022-07-24T01:43:47;8.48;;;6.80;;
65459;SDS011;52058;49.822;6.754;2022-07-24T01:46:12;7.22;;;6.53;;
65459;SDS011;52058;49.822;6.754;2022-07-24T01:48:38;7.38;;;6.68;;
65459;SDS011;52058;49.822;6.754;2022-07-24T01:51:05;7.72;;;5.55;;
65459;SDS011;52058;49.822;6.754;2022-07-24T01:53:30;7.32;;;6.20;;
65459;SDS011;52058;49.822;6.754;2022-07-24T01:55:56;7.47;;;6.63;;
65459;SDS011;52058;49.822;6.754;2022-07-24T01:58:21;7.22;;;6.47;;
65459;SDS011;52058;49.822;6.754;2022-07-24T02:00:47;7.47;;;6.78;;
65459;SDS011;52058;49.822;6.754;2022-07-24T02:03:12;7.53;;;6.45;;
65459;SDS011;52058;49.822;6.754;2022-07-24T02:05:37;7.28;;;6.22;;
65459;SDS011;52058;49.822;6.754;2022-07-24T02:08:03;7.68;;;6.22;;
65459;SDS011;52058;49.822;6.754;2022-07-24T02:10:35;6.57;;;5.90;;
65459;SDS011;52058;49.822;6.754;2022-07-24T02:13:00;6.15;;;5.60;;
65459;SDS011;52058;49.822;6.754;2022-07-24T02:15:26;10.15;;;7.40;;
65459;SDS011;52058;49.822;6.754;2022-07-24T02:17:55;7.88;;;6.82;;
65459;SDS011;52058;49.822;6.754;2022-07-24T02:20:22;8.73;;;7.05;;
65459;SDS011;52058;49.822;6.754;2022-07-24T02:22:48;8.27;;;6.97;;
65459;SDS011;52058;49.822;6.754;2022-07-24T02:25:14;8.02;;;6.43;;
65459;SDS011;52058;49.822;6.754;2022-07-24T02:27:39;7.40;;;6.53;;
65459;SDS011;52058;49.822;6.754;2022-07-24T02:30:06;6.97;;;5.97;;
65459;SDS011;52058;49.822;6.754;2022-07-24T02:32:33;8.57;;;6.88;;
65459;SDS011;52058;49.822;6.754;2022-07-24T02:34:58;7.53;;;6.47;;
65459;SDS011;52058;49.822;6.754;2022-07-24T02:37:24;9.25;;;7.05;;
65459;SDS011;52058;49.822;6.754;2022-07-24T02:39:49;8.60;;;6.50;;
65459;SDS011;52058;49.822;6.754;2022-07-24T02:42:14;12.35;;;6.97;;
65459;SDS011;52058;49.822;6.754;2022-07-24T02:44:39;10.10;;;6.82;;
65459;SDS011;52058;49.822;6.754;2022-07-24T02:47:05;9.00;;;7.28;;
65459;SDS011;52058;49.822;6.754;2022-07-24T02:49:30;7.13;;;6.43;;
65459;SDS011;52058;49.822;6.754;2022-07-24T02:51:55;7.65;;;6.85;;
65459;SDS011;52058;49.822;6.754;2022-07-24T02:54:21;11.02;;;6.63;;
65459;SDS011;52058;49.822;6.754;2022-07-24T02:56:46;8.30;;;6.88;;
65459;SDS011;52058;49.822;6.754;2022-07-24T02:59:11;8.32;;;7.05;;
65459;SDS011;52058;49.822;6.754;2022-07-24T03:01:37;8.27;;;6.70;;
65459;SDS011;52058;49.822;6.754;2022-07-24T03:04:02;8.32;;;6.82;;
65459;SDS011;52058;49.822;6.754;2022-07-24T03:06:28;7.72;;;6.90;;
65459;SDS011;52058;49.822;6.754;2022-07-24T03:08:53;7.68;;;6.88;;
65459;SDS011;52058;49.822;6.754;2022-07-24T03:11:18;8.38;;;6.93;;
65459;SDS011;52058;49.822;6.754;2022-07-24T03:13:43;7.57;;;6.70;;
65459;SDS011;52058;49.822;6.754;2022-07-24T03:16:09;7.88;;;7.07;;
65459;SDS011;52058;49.822;6.754;2022-07-24T03:18:34;9.75;;;7.10;;
65459;SDS011;52058;49.822;6.754;2022-07-24T03:21:00;7.90;;;7.10;;
65459;SDS011;52058;49.822;6.754;2022-07-24T03:23:25;8.45;;;7.13;;
65459;SDS011;52058;49.822;6.754;2022-07-24T03:25:50;8.00;;;6.75;;
65459;SDS011;52058;49.822;6.754;2022-07-24T03:28:17;9.27;;;7.03;;
65459;SDS011;52058;49.822;6.754;2022-07-24T03:30:43;7.53;;;6.82;;
65459;SDS011;52058;49.822;6.754;2022-07-24T03:33:08;7.90;;;7.05;;
65459;SDS011;52058;49.822;6.754;2022-07-24T03:35:33;8.93;;;7.22;;
65459;SDS011;52058;49.822;6.754;2022-07-24T03:37:58;7.10;;;6.45;;
65459;SDS011;52058;49.822;6.754;2022-07-24T03:40:24;7.70;;;6.70;;
65459;SDS011;52058;49.822;6.754;2022-07-24T03:42:49;7.57;;;6.78;;
65459;SDS011;52058;49.822;6.754;2022-07-24T03:45:14;9.88;;;7.38;;
65459;SDS011;52058;49.822;6.754;2022-07-24T03:47:40;7.57;;;6.38;;
65459;SDS011;52058;49.822;6.754;2022-07-24T03:50:05;9.20;;;7.32;;
65459;SDS011;52058;49.822;6.754;2022-07-24T03:52:31;8.82;;;6.93;;
65459;SDS011;52058;49.822;6.754;2022-07-24T03:54:56;8.27;;;7.00;;
65459;SDS011;52058;49.822;6.754;2022-07-24T03:57:22;8.57;;;7.22;;
65459;SDS011;52058;49.822;6.754;2022-07-24T03:59:47;7.80;;;6.85;;
65459;SDS011;52058;49.822;6.754;2022-07-24T04:02:13;8.50;;;6.47;;
65459;SDS011;52058;49.822;6.754;2022-07-24T04:04:38;10.02;;;7.20;;
65459;SDS011;52058;49.822;6.754;2022-07-24T04:07:03;10.35;;;6.53;;
65459;SDS011;52058;49.822;6.754;2022-07-24T04:09:29;7.63;;;6.70;;
65459;SDS011;52058;49.822;6.754;2022-07-24T04:11:54;9.07;;;6.80;;
65459;SDS011;52058;49.822;6.754;2022-07-24T04:14:19;7.95;;;7.15;;
65459;SDS011;52058;49.822;6.754;2022-07-24T04:16:44;8.13;;;7.28;;
65459;SDS011;52058;49.822;6.754;2022-07-24T04:19:10;7.80;;;6.82;;
65459;SDS011;52058;49.822;6.754;2022-07-24T04:21:35;8.20;;;7.15;;
65459;SDS011;52058;49.822;6.754;2022-07-24T04:24:01;9.73;;;7.18;;
65459;SDS011;52058;49.822;6.754;2022-07-24T04:26:26;8.35;;;7.43;;
65459;SDS011;52058;49.822;6.754;2022-07-24T04:28:52;8.70;;;6.85;;
65459;SDS011;52058;49.822;6.754;2022-07-24T04:31:18;8.40;;;7.03;;
65459;SDS011;52058;49.822;6.754;2022-07-24T04:33:43;8.57;;;6.80;;
65459;SDS011;52058;49.822;6.754;2022-07-24T04:36:08;9.57;;;8.00;;
65459;SDS011;52058;49.822;6.754;2022-07-24T04:38:34;9.50;;;7.05;;
65459;SDS011;52058;49.822;6.754;2022-07-24T04:40:59;9.30;;;6.85;;
65459;SDS011;52058;49.822;6.754;2022-07-24T04:43:25;8.95;;;7.22;;
65459;SDS011;52058;49.822;6.754;2022-07-24T04:45:50;7.97;;;6.85;;
65459;SDS011;52058;49.822;6.754;2022-07-24T04:48:16;10.27;;;7.10;;
65459;SDS011;52058;49.822;6.754;2022-07-24T04:50:41;8.35;;;7.55;;
65459;SDS011;52058;49.822;6.754;2022-07-24T04:53:06;8.32;;;7.47;;
65459;SDS011;52058;49.822;6.754;2022-07-24T04:55:32;8.13;;;7.07;;
65459;SDS011;52058;49.822;6.754;2022-07-24T04:57:57;8.25;;;6.85;;
65459;SDS011;52058;49.822;6.754;2022-07-24T05:00:22;8.32;;;6.75;;
65459;SDS011;52058;49.822;6.754;2022-07-24T05:02:48;11.02;;;6.53;;
65459;SDS011;52058;49.822;6.754;2022-07-24T05:05:13;8.32;;;6.68;;
65459;SDS011;52058;49.822;6.754;2022-07-24T05:07:38;7.28;;;6.57;;
65459;SDS011;52058;49.822;6.754;2022-07-24T05:10:04;7.68;;;6.85;;
65459;SDS011;52058;49.822;6.754;2022-07-24T05:12:30;7.85;;;6.80;;
65459;SDS011;52058;49.822;6.754;2022-07-24T05:14:55;7.90;;;6.97;;
65459;SDS011;52058;49.822;6.754;2022-07-24T05:17:21;8.63;;;7.15;;
65459;SDS011;52058;49.822;6.754;2022-07-24T05:19:46;7.20;;;6.50;;
65459;SDS011;52058;49.822;6.754;2022-07-24T05:22:11;8.80;;;7.82;;
65459;SDS011;52058;49.822;6.754;2022-07-24T05:24:37;8.00;;;7.20;;
65459;SDS011;52058;49.822;6.754;2022-07-24T05:27:02;9.85;;;7.75;;
65459;SDS011;52058;49.822;6.754;2022-07-24T05:29:27;8.95;;;7.53;;
65459;SDS011;52058;49.822;6.754;2022-07-24T05:31:53;10.05;;;7.35;;
65459;SDS011;52058;49.822;6.754;2022-07-24T05:34:19;8.95;;;7.55;;
65459;SDS011;52058;49.822;6.754;2022-07-24T05:36:45;9.18;;;8.02;;
65459;SDS011;52058;49.822;6.754;2022-07-24T05:39:11;8.65;;;7.03;;
65459;SDS011;52058;49.822;6.754;2022-07-24T05:41:36;8.27;;;7.47;;
65459;SDS011;52058;49.822;6.754;2022-07-24T05:44:01;9.52;;;7.90;;
65459;SDS011;52058;49.822;6.754;2022-07-24T05:46:27;9.52;;;7.82;;
65459;SDS011;52058;49.822;6.754;2022-07-24T05:48:52;9.57;;;7.82;;
65459;SDS011;52058;49.822;6.754;2022-07-24T05:51:17;10.05;;;8.02;;
65459;SDS011;52058;49.822;6.754;2022-07-24T05:53:42;8.93;;;7.80;;
65459;SDS011;52058;49.822;6.754;2022-07-24T05:56:08;9.50;;;8.05;;
65459;SDS011;52058;49.822;6.754;2022-07-24T05:58:33;8.60;;;7.70;;
65459;SDS011;52058;49.822;6.754;2022-07-24T06:01:00;10.32;;;7.65;;
65459;SDS011;52058;49.822;6.754;2022-07-24T06:03:26;10.18;;;7.40;;
65459;SDS011;52058;49.822;6.754;2022-07-24T06:05:51;9.20;;;7.47;;
65459;SDS011;52058;49.822;6.754;2022-07-24T06:08:17;9.70;;;7.88;;
65459;SDS011;52058;49.822;6.754;2022-07-24T06:10:42;8.63;;;7.70;;
65459;SDS011;52058;49.822;6.754;2022-07-24T06:13:07;8.70;;;7.28;;
65459;SDS011;52058;49.822;6.754;2022-07-24T06:15:33;8.50;;;6.90;;
65459;SDS011;52058;49.822;6.754;2022-07-24T06:17:58;8.15;;;7.30;;
65459;SDS011;52058;49.822;6.754;2022-07-24T06:20:23;8.80;;;7.38;;
65459;SDS011;52058;49.822;6.754;2022-07-24T06:22:49;8.35;;;7.35;;
65459;SDS011;52058;49.822;6.754;2022-07-24T06:25:15;7.43;;;6.60;;
65459;SDS011;52058;49.822;6.754;2022-07-24T06:27:42;8.20;;;6.70;;
65459;SDS011;52058;49.822;6.754;2022-07-24T06:30:15;7.13;;;6.28;;
65459;SDS011;52058;49.822;6.754;2022-07-24T06:32:41;7.57;;;6.88;;
65459;SDS011;52058;49.822;6.754;2022-07-24T06:35:07;7.22;;;6.50;;
65459;SDS011;52058;49.822;6.754;2022-07-24T06:37:32;8.75;;;6.68;;
65459;SDS011;52058;49.822;6.754;2022-07-24T06:39:58;6.75;;;6.05;;
65459;SDS011;52058;49.822;6.754;2022-07-24T06:42:23;7.38;;;5.93;;
65459;SDS011;52058;49.822;6.754;2022-07-24T06:44:49;7.05;;;6.35;;
65459;SDS011;52058;49.822;6.754;2022-07-24T06:47:14;8.07;;;6.47;;
65459;SDS011;52058;49.822;6.754;2022-07-24T06:49:39;9.52;;;7.20;;
65459;SDS011;52058;49.822;6.754;2022-07-24T06:52:05;7.75;;;6.80;;
65459;SDS011;52058;49.822;6.754;2022-07-24T06:54:30;7.78;;;6.05;;
65459;SDS011;52058;49.822;6.754;2022-07-24T06:56:55;7.03;;;6.18;;
65459;SDS011;52058;49.822;6.754;2022-07-24T06:59:21;7.30;;;6.32;;
65459;SDS011;52058;49.822;6.754;2022-07-24T07:01:46;8.23;;;6.47;;
65459;SDS011;52058;49.822;6.754;2022-07-24T07:04:12;10.10;;;6.10;;
65459;SDS011;52058;49.822;6.754;2022-07-24T07:06:37;6.70;;;6.10;;
65459;SDS011;52058;49.822;6.754;2022-07-24T07:09:02;8.98;;;6.28;;
65459;SDS011;52058;49.822;6.754;2022-07-24T07:11:27;10.75;;;6.90;;
65459;SDS011;52058;49.822;6.754;2022-07-24T07:13:53;8.25;;;6.57;;
65459;SDS011;52058;49.822;6.754;2022-07-24T07:16:18;6.57;;;5.75;;
65459;SDS011;52058;49.822;6.754;2022-07-24T07:18:43;6.63;;;5.93;;
65459;SDS011;52058;49.822;6.754;2022-07-24T07:21:09;7.28;;;5.85;;
65459;SDS011;52058;49.822;6.754;2022-07-24T07:23:34;6.65;;;5.75;;
65459;SDS011;52058;49.822;6.754;2022-07-24T07:25:59;7.40;;;5.82;;
65459;SDS011;52058;49.822;6.754;2022-07-24T07:28:25;6.88;;;5.95;;
65459;SDS011;52058;49.822;6.754;2022-07-24T07:30:50;6.55;;;5.65;;
65459;SDS011;52058;49.822;6.754;2022-07-24T07:33:15;9.07;;;6.18;;
65459;SDS011;52058;49.822;6.754;2022-07-24T07:35:41;7.82;;;5.75;;
65459;SDS011;52058;49.822;6.754;2022-07-24T07:38:06;6.50;;;5.65;;
65459;SDS011;52058;49.822;6.754;2022-07-24T07:40:31;7.32;;;5.38;;
65459;SDS011;52058;49.822;6.754;2022-07-24T07:42:57;7.22;;;5.90;;
65459;SDS011;52058;49.822;6.754;2022-07-24T07:45:22;5.88;;;5.28;;
65459;SDS011;52058;49.822;6.754;2022-07-24T07:47:47;7.97;;;5.70;;
65459;SDS011;52058;49.822;6.754;2022-07-24T07:50:13;6.93;;;5.78;;
65459;SDS011;52058;49.822;6.754;2022-07-24T07:52:39;5.53;;;5.03;;
65459;SDS011;52058;49.822;6.754;2022-07-24T07:55:04;5.88;;;5.38;;
65459;SDS011;52058;49.822;6.754;2022-07-24T07:57:30;4.70;;;4.30;;
65459;SDS011;52058;49.822;6.754;2022-07-24T07:59:56;4.72;;;4.28;;
65459;SDS011;52058;49.822;6.754;2022-07-24T08:02:21;6.80;;;4.53;;
65459;SDS011;52058;49.822;6.754;2022-07-24T08:04:46;4.43;;;4.00;;
65459;SDS011;52058;49.822;6.754;2022-07-24T08:07:12;4.40;;;3.53;;
65459;SDS011;52058;49.822;6.754;2022-07-24T08:09:37;5.80;;;4.22;;
65459;SDS011;52058;49.822;6.754;2022-07-24T08:12:03;4.73;;;3.77;;
65459;SDS011;52058;49.822;6.754;2022-07-24T08:14:29;6.07;;;3.90;;
65459;SDS011;52058;49.822;6.754;2022-07-24T08:16:55;4.32;;;3.63;;
65459;SDS011;52058;49.822;6.754;2022-07-24T08:19:21;3.38;;;3.08;;
65459;SDS011;52058;49.822;6.754;2022-07-24T08:21:46;3.90;;;3.35;;
65459;SDS011;52058;49.822;6.754;2022-07-24T08:24:11;4.20;;;3.28;;
65459;SDS011;52058;49.822;6.754;2022-07-24T08:26:37;3.90;;;3.60;;
65459;SDS011;52058;49.822;6.754;2022-07-24T08:29:03;3.80;;;3.50;;
65459;SDS011;52058;49.822;6.754;2022-07-24T08:31:28;4.72;;;3.20;;
65459;SDS011;52058;49.822;6.754;2022-07-24T08:33:54;3.20;;;2.90;;
65459;SDS011;52058;49.822;6.754;2022-07-24T08:36:19;3.75;;;3.00;;
65459;SDS011;52058;49.822;6.754;2022-07-24T08:38:44;3.30;;;3.03;;
65459;SDS011;52058;49.822;6.754;2022-07-24T08:41:11;4.78;;;3.33;;
65459;SDS011;52058;49.822;6.754;2022-07-24T08:43:37;3.53;;;3.22;;
65459;SDS011;52058;49.822;6.754;2022-07-24T08:46:02;3.63;;;3.33;;
65459;SDS011;52058;49.822;6.754;2022-07-24T08:48:29;3.35;;;3.08;;
65459;SDS011;52058;49.822;6.754;2022-07-24T08:50:56;4.57;;;3.10;;
65459;SDS011;52058;49.822;6.754;2022-07-24T08:53:23;3.60;;;3.30;;
65459;SDS011;52058;49.822;6.754;2022-07-24T08:55:49;4.10;;;3.22;;
65459;SDS011;52058;49.822;6.754;2022-07-24T08:58:15;3.30;;;3.00;;
65459;SDS011;52058;49.822;6.754;2022-07-24T09:00:40;4.00;;;3.60;;
65459;SDS011;52058;49.822;6.754;2022-07-24T09:03:06;3.45;;;3.15;;
65459;SDS011;52058;49.822;6.754;2022-07-24T09:05:32;3.60;;;3.30;;
65459;SDS011;52058;49.822;6.754;2022-07-24T09:08:06;3.83;;;3.20;;
65459;SDS011;52058;49.822;6.754;2022-07-24T09:10:35;4.80;;;3.45;;
65459;SDS011;52058;49.822;6.754;2022-07-24T09:13:11;4.05;;;3.65;;
65459;SDS011;52058;49.822;6.754;2022-07-24T09:15:43;4.72;;;3.58;;
65459;SDS011;52058;49.822;6.754;2022-07-24T09:18:10;4.20;;;3.80;;
65459;SDS011;52058;49.822;6.754;2022-07-24T09:20:57;3.90;;;3.47;;
65459;SDS011;52058;49.822;6.754;2022-07-24T09:23:23;4.07;;;3.63;;
65459;SDS011;52058;49.822;6.754;2022-07-24T09:25:53;3.50;;;3.20;;
65459;SDS011;52058;49.822;6.754;2022-07-24T09:28:19;4.35;;;3.08;;
65459;SDS011;52058;49.822;6.754;2022-07-24T09:30:45;4.00;;;3.65;;
65459;SDS011;52058;49.822;6.754;2022-07-24T09:35:39;3.40;;;3.10;;
65459;SDS011;52058;49.822;6.754;2022-07-24T09:38:10;3.88;;;3.13;;
65459;SDS011;52058;49.822;6.754;2022-07-24T09:40:44;3.60;;;3.30;;
65459;SDS011;52058;49.822;6.754;2022-07-24T09:43:15;3.75;;;3.05;;
65459;SDS011;52058;49.822;6.754;2022-07-24T09:46:05;3.08;;;2.88;;
65459;SDS011;52058;49.822;6.754;2022-07-24T09:48:39;4.68;;;3.10;;
65459;SDS011;52058;49.822;6.754;2022-07-24T09:51:15;3.40;;;3.10;;
65459;SDS011;52058;49.822;6.754;2022-07-24T09:53:43;4.50;;;3.33;;
65459;SDS011;52058;49.822;6.754;2022-07-24T09:56:13;3.33;;;3.08;;
65459;SDS011;52058;49.822;6.754;2022-07-24T09:58:47;4.13;;;3.40;;
65459;SDS011;52058;49.822;6.754;2022-07-24T10:03:47;3.50;;;3.20;;
65459;SDS011;52058;49.822;6.754;2022-07-24T10:06:14;3.75;;;3.45;;
65459;SDS011;52058;49.822;6.754;2022-07-24T10:08:43;3.50;;;3.20;;
65459;SDS011;52058;49.822;6.754;2022-07-24T10:11:09;5.40;;;3.28;;
65459;SDS011;52058;49.822;6.754;2022-07-24T10:13:35;5.05;;;3.53;;
65459;SDS011;52058;49.822;6.754;2022-07-24T10:21:18;3.80;;;3.08;;
65459;SDS011;52058;49.822;6.754;2022-07-24T10:26:44;3.53;;;3.22;;
65459;SDS011;52058;49.822;6.754;2022-07-24T10:29:11;4.80;;;3.50;;
65459;SDS011;52058;49.822;6.754;2022-07-24T10:31:38;4.22;;;3.50;;
65459;SDS011;52058;49.822;6.754;2022-07-24T10:34:08;3.72;;;3.22;;
65459;SDS011;52058;49.822;6.754;2022-07-24T10:36:39;3.53;;;3.22;;
65459;SDS011;52058;49.822;6.754;2022-07-24T10:39:13;3.45;;;3.15;;
65459;SDS011;52058;49.822;6.754;2022-07-24T10:41:59;4.03;;;3.00;;
65459;SDS011;52058;49.822;6.754;2022-07-24T10:44:29;4.70;;;3.50;;
65459;SDS011;52058;49.822;6.754;2022-07-24T10:46:58;3.78;;;3.35;;
65459;SDS011;52058;49.822;6.754;2022-07-24T10:49:36;4.38;;;3.45;;
65459;SDS011;52058;49.822;6.754;2022-07-24T10:52:12;3.63;;;3.33;;
65459;SDS011;52058;49.822;6.754;2022-07-24T10:57:14;3.40;;;3.10;;
65459;SDS011;52058;49.822;6.754;2022-07-24T10:59:39;3.30;;;3.00;;
65459;SDS011;52058;49.822;6.754;2022-07-24T11:02:23;3.65;;;3.15;;
65459;SDS011;52058;49.822;6.754;2022-07-24T11:05:37;4.20;;;3.15;;
65459;SDS011;52058;49.822;6.754;2022-07-24T11:18:35;3.97;;;3.45;;
65459;SDS011;52058;49.822;6.754;2022-07-24T11:21:01;3.40;;;3.10;;
65459;SDS011;52058;49.822;6.754;2022-07-24T11:23:27;3.45;;;3.15;;
65459;SDS011;52058;49.822;6.754;2022-07-24T11:26:35;4.82;;;3.22;;
65459;SDS011;52058;49.822;6.754;2022-07-24T11:31:43;3.80;;;3.30;;
65459;SDS011;52058;49.822;6.754;2022-07-24T11:34:09;3.55;;;3.25;;
65459;SDS011;52058;49.822;6.754;2022-07-24T11:36:35;3.55;;;3.05;;
65459;SDS011;52058;49.822;6.754;2022-07-24T11:39:02;4.45;;;2.97;;
65459;SDS011;52058;49.822;6.754;2022-07-24T11:41:28;3.20;;;2.90;;
65459;SDS011;52058;49.822;6.754;2022-07-24T11:44:09;4.32;;;3.00;;
65459;SDS011;52058;49.822;6.754;2022-07-24T11:46:35;3.28;;;2.92;;
65459;SDS011;52058;49.822;6.754;2022-07-24T11:49:02;3.30;;;3.00;;
65459;SDS011;52058;49.822;6.754;2022-07-24T11:51:28;3.38;;;3.08;;
65459;SDS011;52058;49.822;6.754;2022-07-24T11:53:54;3.80;;;3.22;;
65459;SDS011;52058;49.822;6.754;2022-07-24T11:56:20;3.30;;;2.97;;
65459;SDS011;52058;49.822;6.754;2022-07-24T11:58:45;5.87;;;3.30;;
65459;SDS011;52058;49.822;6.754;2022-07-24T12:01:20;3.50;;;2.70;;
65459;SDS011;52058;49.822;6.754;2022-07-24T12:03:48;3.30;;;3.00;;
65459;SDS011;52058;49.822;6.754;2022-07-24T12:06:18;4.00;;;3.10;;
65459;SDS011;52058;49.822;6.754;2022-07-24T12:08:44;3.92;;;3.05;;
65459;SDS011;52058;49.822;6.754;2022-07-24T12:11:09;7.10;;;3.20;;
65459;SDS011;52058;49.822;6.754;2022-07-24T12:13:35;3.78;;;3.40;;
65459;SDS011;52058;49.822;6.754;2022-07-24T12:16:06;3.58;;;3.28;;
65459;SDS011;52058;49.822;6.754;2022-07-24T12:18:32;3.25;;;2.70;;
65459;SDS011;52058;49.822;6.754;2022-07-24T12:20:58;3.67;;;3.10;;
65459;SDS011;52058;49.822;6.754;2022-07-24T12:23:26;3.58;;;3.20;;
65459;SDS011;52058;49.822;6.754;2022-07-24T12:25:54;3.00;;;2.70;;
65459;SDS011;52058;49.822;6.754;2022-07-24T12:28:20;4.60;;;3.17;;
65459;SDS011;52058;49.822;6.754;2022-07-24T12:30:49;3.70;;;3.40;;
65459;SDS011;52058;49.822;6.754;2022-07-24T12:35:54;4.57;;;3.28;;
65459;SDS011;52058;49.822;6.754;2022-07-24T12:38:34;3.70;;;3.30;;
65459;SDS011;52058;49.822;6.754;2022-07-24T12:41:02;4.65;;;3.60;;
65459;SDS011;52058;49.822;6.754;2022-07-24T12:43:30;3.50;;;3.20;;
65459;SDS011;52058;49.822;6.754;2022-07-24T12:46:08;4.25;;;3.30;;
65459;SDS011;52058;49.822;6.754;2022-07-24T12:48:35;4.70;;;3.53;;
65459;SDS011;52058;49.822;6.754;2022-07-24T12:51:10;3.92;;;3.50;;
65459;SDS011;52058;49.822;6.754;2022-07-24T12:53:40;3.58;;;3.28;;
65459;SDS011;52058;49.822;6.754;2022-07-24T12:58:58;4.65;;;3.45;;
65459;SDS011;52058;49.822;6.754;2022-07-24T13:01:27;4.00;;;3.25;;
65459;SDS011;52058;49.822;6.754;2022-07-24T13:04:08;4.93;;;3.33;;
65459;SDS011;52058;49.822;6.754;2022-07-24T13:06:35;3.88;;;3.47;;
65459;SDS011;52058;49.822;6.754;2022-07-24T13:09:04;4.22;;;3.33;;
65459;SDS011;52058;49.822;6.754;2022-07-24T13:11:30;3.97;;;3.58;;
65459;SDS011;52058;49.822;6.754;2022-07-24T13:13:56;4.55;;;3.63;;
65459;SDS011;52058;49.822;6.754;2022-07-24T13:16:21;3.95;;;3.55;;
65459;SDS011;52058;49.822;6.754;2022-07-24T13:18:48;3.97;;;3.35;;
65459;SDS011;52058;49.822;6.754;2022-07-24T13:21:16;4.65;;;3.60;;
65459;SDS011;52058;49.822;6.754;2022-07-24T13:23:43;3.83;;;3.53;;
65459;SDS011;52058;49.822;6.754;2022-07-24T13:26:08;5.00;;;3.40;;
65459;SDS011;52058;49.822;6.754;2022-07-24T13:28:33;3.63;;;3.28;;
65459;SDS011;52058;49.822;6.754;2022-07-24T13:30:59;4.10;;;3.38;;
65459;SDS011;52058;49.822;6.754;2022-07-24T13:33:24;3.40;;;3.00;;
65459;SDS011;52058;49.822;6.754;2022-07-24T13:35:49;3.50;;;3.20;;
65459;SDS011;52058;49.822;6.754;2022-07-24T13:38:15;4.68;;;3.22;;
65459;SDS011;52058;49.822;6.754;2022-07-24T13:40:41;5.15;;;3.40;;
65459;SDS011;52058;49.822;6.754;2022-07-24T13:43:06;7.70;;;3.10;;
65459;SDS011;52058;49.822;6.754;2022-07-24T13:45:31;3.75;;;3.30;;
65459;SDS011;52058;49.822;6.754;2022-07-24T13:47:56;3.72;;;2.80;;
65459;SDS011;52058;49.822;6.754;2022-07-24T13:50:22;3.60;;;3.10;;
65459;SDS011;52058;49.822;6.754;2022-07-24T13:52:47;3.73;;;3.17;;
65459;SDS011;52058;49.822;6.754;2022-07-24T13:55:12;3.88;;;2.90;;
65459;SDS011;52058;49.822;6.754;2022-07-24T13:57:38;3.80;;;3.50;;
65459;SDS011;52058;49.822;6.754;2022-07-24T14:00:03;3.50;;;3.20;;
65459;SDS011;52058;49.822;6.754;2022-07-24T14:02:29;3.95;;;3.40;;
65459;SDS011;52058;49.822;6.754;2022-07-24T14:04:54;3.40;;;3.10;;
65459;SDS011;52058;49.822;6.754;2022-07-24T14:07:20;4.65;;;3.60;;
65459;SDS011;52058;49.822;6.754;2022-07-24T14:09:45;4.25;;;3.42;;
65459;SDS011;52058;49.822;6.754;2022-07-24T14:12:10;4.50;;;3.13;;
65459;SDS011;52058;49.822;6.754;2022-07-24T14:14:36;3.55;;;3.25;;
65459;SDS011;52058;49.822;6.754;2022-07-24T14:17:01;3.97;;;3.22;;
65459;SDS011;52058;49.822;6.754;2022-07-24T14:19:26;4.50;;;3.42;;
65459;SDS011;52058;49.822;6.754;2022-07-24T14:21:52;3.88;;;3.38;;
65459;SDS011;52058;49.822;6.754;2022-07-24T14:24:18;3.80;;;3.50;;
65459;SDS011;52058;49.822;6.754;2022-07-24T14:26:43;3.38;;;2.95;;
65459;SDS011;52058;49.822;6.754;2022-07-24T14:29:10;4.13;;;3.10;;
65459;SDS011;52058;49.822;6.754;2022-07-24T14:31:36;3.58;;;2.83;;
65459;SDS011;52058;49.822;6.754;2022-07-24T14:34:01;3.75;;;3.30;;
65459;SDS011;52058;49.822;6.754;2022-07-24T14:36:27;4.47;;;3.47;;
65459;SDS011;52058;49.822;6.754;2022-07-24T14:38:52;3.40;;;3.10;;
65459;SDS011;52058;49.822;6.754;2022-07-24T14:41:18;4.47;;;3.30;;
65459;SDS011;52058;49.822;6.754;2022-07-24T14:43:43;3.47;;;3.08;;
65459;SDS011;52058;49.822;6.754;2022-07-24T14:46:08;4.27;;;3.40;;
65459;SDS011;52058;49.822;6.754;2022-07-24T14:48:33;3.60;;;3.30;;
65459;SDS011;52058;49.822;6.754;2022-07-24T14:50:59;3.43;;;2.97;;
65459;SDS011;52058;49.822;6.754;2022-07-24T14:53:24;4.97;;;3.77;;
65459;SDS011;52058;49.822;6.754;2022-07-24T14:55:49;3.72;;;3.28;;
65459;SDS011;52058;49.822;6.754;2022-07-24T14:58:15;4.03;;;3.10;;
65459;SDS011;52058;49.822;6.754;2022-07-24T15:00:40;3.97;;;3.40;;
65459;SDS011;52058;49.822;6.754;2022-07-24T15:03:05;3.90;;;3.35;;
65459;SDS011;52058;49.822;6.754;2022-07-24T15:05:30;3.50;;;3.20;;
65459;SDS011;52058;49.822;6.754;2022-07-24T15:07:56;4.10;;;3.35;;
65459;SDS011;52058;49.822;6.754;2022-07-24T15:10:21;4.13;;;3.57;;
65459;SDS011;52058;49.822;6.754;2022-07-24T15:12:46;4.15;;;3.30;;
65459;SDS011;52058;49.822;6.754;2022-07-24T15:15:12;3.57;;;3.27;;
65459;SDS011;52058;49.822;6.754;2022-07-24T15:17:37;4.13;;;3.47;;
65459;SDS011;52058;49.822;6.754;2022-07-24T15:20:02;4.43;;;3.77;;